createdAt,value
2022-10-29T00:01:40.800Z,100.00
2022-10-29T00:04:09.241Z,100.00
2022-10-29T00:06:37.008Z,100.00
2022-10-29T00:09:05.599Z,100.00
2022-10-29T00:11:33.364Z,100.00
2022-10-29T00:14:02.335Z,100.00
2022-10-29T00:16:36.044Z,100.00
2022-10-29T00:19:05.654Z,100.00
2022-10-29T00:21:34.403Z,100.00
2022-10-29T00:24:02.401Z,100.00
2022-10-29T00:26:31.050Z,100.00
2022-10-29T00:28:58.883Z,100.00
2022-10-29T00:31:26.719Z,100.00
2022-10-29T00:33:56.136Z,100.00
2022-10-29T00:36:28.172Z,100.00
2022-10-29T00:38:57.002Z,100.00
2022-10-29T00:41:27.375Z,100.00
2022-10-29T00:44:38.514Z,100.00
2022-10-29T00:47:18.728Z,100.00
2022-10-29T00:49:49.011Z,100.00
2022-10-29T00:52:20.454Z,100.00
2022-10-29T00:54:50.355Z,100.00
2022-10-29T00:57:23.502Z,100.00
2022-10-29T00:59:51.314Z,100.00
2022-10-29T01:02:19.375Z,100.00
2022-10-29T01:04:47.384Z,100.00
2022-10-29T01:07:15.440Z,100.00
2022-10-29T01:09:44.902Z,100.00
2022-10-29T01:12:40.333Z,100.00
2022-10-29T01:15:21.508Z,100.00
2022-10-29T01:18:05.490Z,100.00
2022-10-29T01:21:24.172Z,100.00
2022-10-29T01:24:31.598Z,100.00
2022-10-29T01:27:23.519Z,100.00
2022-10-29T01:30:04.095Z,100.00
2022-10-29T01:32:42.906Z,100.00
2022-10-29T01:35:16.085Z,100.00
2022-10-29T01:37:55.161Z,100.00
2022-10-29T01:40:27.688Z,100.00
2022-10-29T01:43:05.109Z,100.00
2022-10-29T01:45:37.368Z,100.00
2022-10-29T01:48:11.403Z,100.00
2022-10-29T01:50:43.485Z,100.00
2022-10-29T01:53:12.066Z,100.00
2022-10-29T01:55:39.792Z,100.00
2022-10-29T01:58:08.498Z,100.00
2022-10-29T02:00:43.494Z,100.00
2022-10-29T02:03:26.415Z,100.00
2022-10-29T02:06:01.388Z,100.00
2022-10-29T02:08:36.797Z,100.00
2022-10-29T02:11:11.169Z,100.00
2022-10-29T02:13:45.782Z,100.00
2022-10-29T02:16:15.242Z,100.00
2022-10-29T02:18:46.829Z,100.00
2022-10-29T02:21:16.419Z,100.00
2022-10-29T02:23:44.394Z,100.00
2022-10-29T02:26:12.176Z,100.00
2022-10-29T02:28:40.049Z,100.00
2022-10-29T02:31:07.750Z,100.00
2022-10-29T02:33:35.642Z,100.00
2022-10-29T02:36:05.367Z,100.00
2022-10-29T02:38:33.050Z,100.00
2022-10-29T02:41:00.783Z,100.00
2022-10-29T02:43:28.591Z,100.00
2022-10-29T02:46:13.468Z,100.00
2022-10-29T02:48:41.169Z,100.00
2022-10-29T02:51:10.252Z,100.00
2022-10-29T02:53:38.493Z,100.00
2022-10-29T02:56:07.940Z,100.00
2022-10-29T02:58:36.050Z,100.00
2022-10-29T03:01:04.245Z,100.00
2022-10-29T03:03:32.425Z,100.00
2022-10-29T03:06:00.317Z,100.00
2022-10-29T03:08:29.406Z,100.00
2022-10-29T03:10:57.202Z,100.00
2022-10-29T03:13:25.082Z,100.00
2022-10-29T03:15:52.829Z,100.00
2022-10-29T03:18:20.549Z,100.00
2022-10-29T03:20:48.526Z,100.00
2022-10-29T03:23:16.277Z,100.00
2022-10-29T03:25:45.688Z,100.00
2022-10-29T03:28:13.347Z,100.00
2022-10-29T03:30:41.101Z,100.00
2022-10-29T03:33:08.800Z,100.00
2022-10-29T03:35:36.574Z,100.00
2022-10-29T03:38:04.324Z,100.00
2022-10-29T03:40:32.133Z,100.00
2022-10-29T03:43:01.246Z,100.00
2022-10-29T03:45:28.944Z,100.00
2022-10-29T03:47:57.575Z,100.00
2022-10-29T03:50:25.703Z,100.00
2022-10-29T03:52:53.419Z,100.00
2022-10-29T03:55:21.153Z,100.00
2022-10-29T03:57:48.814Z,100.00
2022-10-29T04:00:18.431Z,100.00
2022-10-29T04:02:46.266Z,100.00
2022-10-29T04:05:14.091Z,100.00
2022-10-29T04:07:41.788Z,100.00
2022-10-29T04:10:10.264Z,100.00
2022-10-29T04:12:37.951Z,100.00
2022-10-29T04:15:06.815Z,100.00
2022-10-29T04:17:35.944Z,100.00
2022-10-29T04:20:07.003Z,100.00
2022-10-29T04:28:42.358Z,100.00
2022-10-29T04:31:06.517Z,100.00
2022-10-29T04:33:35.534Z,100.00
2022-10-29T04:36:03.914Z,100.00
2022-10-29T04:38:31.555Z,100.00
2022-10-29T04:41:00.313Z,100.00
2022-10-29T04:43:28.874Z,100.00
2022-10-29T04:45:57.905Z,100.00
2022-10-29T04:48:26.982Z,100.00
2022-10-29T04:50:56.641Z,100.00
2022-10-29T04:53:24.397Z,100.00
2022-10-29T04:55:52.276Z,100.00
2022-10-29T04:58:21.478Z,100.00
2022-10-29T05:00:49.196Z,100.00
2022-10-29T05:03:16.985Z,100.00
2022-10-29T05:05:44.763Z,100.00
2022-10-29T05:08:15.284Z,100.00
2022-10-29T05:10:43.058Z,100.00
2022-10-29T05:13:13.123Z,100.00
2022-10-29T05:15:41.680Z,100.00
2022-10-29T05:18:10.791Z,100.00
2022-10-29T05:20:38.519Z,100.00
2022-10-29T05:23:07.873Z,100.00
2022-10-29T05:25:39.018Z,100.00
2022-10-29T05:28:10.827Z,100.00
2022-10-29T05:30:39.971Z,100.00
2022-10-29T05:33:08.117Z,100.00
2022-10-29T05:35:36.459Z,100.00
2022-10-29T05:38:05.486Z,100.00
2022-10-29T05:40:33.708Z,100.00
2022-10-29T05:43:02.808Z,100.00
2022-10-29T05:45:30.575Z,100.00
2022-10-29T05:47:59.137Z,100.00
2022-10-29T05:50:27.522Z,100.00
2022-10-29T05:52:59.158Z,100.00
2022-10-29T05:55:27.850Z,100.00
2022-10-29T05:57:57.290Z,100.00
2022-10-29T06:00:27.695Z,100.00
2022-10-29T06:02:56.117Z,100.00
2022-10-29T06:05:24.156Z,100.00
2022-10-29T06:07:55.520Z,100.00
2022-10-29T06:10:24.099Z,100.00
2022-10-29T06:12:51.874Z,100.00
2022-10-29T06:15:20.261Z,100.00
2022-10-29T06:17:49.606Z,100.00
2022-10-29T06:20:20.806Z,100.00
2022-10-29T06:22:48.646Z,100.00
2022-10-29T06:25:16.519Z,100.00
2022-10-29T06:27:44.223Z,100.00
2022-10-29T06:30:13.197Z,100.00
2022-10-29T06:32:40.889Z,100.00
2022-10-29T06:35:11.221Z,100.00
2022-10-29T06:37:39.149Z,100.00
2022-10-29T06:40:07.932Z,100.00
2022-10-29T06:42:35.685Z,100.00
2022-10-29T06:45:03.425Z,100.00
2022-10-29T06:47:31.125Z,100.00
2022-10-29T06:49:58.839Z,100.00
2022-10-29T06:52:27.905Z,100.00
2022-10-29T06:54:55.551Z,100.00
2022-10-29T06:57:24.804Z,100.00
2022-10-29T06:59:52.584Z,100.00
2022-10-29T07:02:21.744Z,100.00
2022-10-29T07:04:49.486Z,100.00
2022-10-29T07:07:17.949Z,100.00
2022-10-29T07:09:47.094Z,100.00
2022-10-29T07:12:14.828Z,100.00
2022-10-29T07:14:42.515Z,100.00
2022-10-29T07:17:10.295Z,100.00
2022-10-29T07:19:37.970Z,100.00
2022-10-29T07:22:06.146Z,100.00
2022-10-29T07:24:33.836Z,100.00
2022-10-29T07:27:03.813Z,100.00
2022-10-29T07:29:31.572Z,100.00
2022-10-29T07:31:59.232Z,100.00
2022-10-29T07:34:26.954Z,100.00
2022-10-29T07:36:54.652Z,100.00
2022-10-29T07:39:22.658Z,100.00
2022-10-29T07:41:51.431Z,99.30
2022-10-29T07:44:22.128Z,99.33
2022-10-29T07:46:49.790Z,99.23
2022-10-29T07:49:17.494Z,100.00
2022-10-29T07:51:45.236Z,99.96
2022-10-29T07:54:14.892Z,99.14
2022-10-29T07:56:45.192Z,98.56
2022-10-29T07:59:15.704Z,98.10
2022-10-29T08:01:44.806Z,98.00
2022-10-29T08:04:13.375Z,96.84
2022-10-29T08:06:41.144Z,97.67
2022-10-29T08:09:08.972Z,97.17
2022-10-29T08:11:37.074Z,96.38
2022-10-29T08:14:05.151Z,95.65
2022-10-29T08:16:32.935Z,95.35
2022-10-29T08:19:02.290Z,95.41
2022-10-29T08:21:30.163Z,95.75
2022-10-29T08:23:58.287Z,95.06
2022-10-29T08:26:26.039Z,95.44
2022-10-29T08:28:53.713Z,95.29
2022-10-29T08:31:21.585Z,94.43
2022-10-29T08:33:49.739Z,94.42
2022-10-29T08:36:18.848Z,93.80
2022-10-29T08:38:47.759Z,93.40
2022-10-29T08:41:37.297Z,93.46
2022-10-29T08:44:20.631Z,92.73
2022-10-29T08:46:51.723Z,92.62
2022-10-29T08:49:22.343Z,92.33
2022-10-29T08:51:57.853Z,91.88
2022-10-29T08:54:31.460Z,91.32
2022-10-29T08:57:03.590Z,91.30
2022-10-29T08:59:36.733Z,90.99
2022-10-29T09:02:04.814Z,90.45
2022-10-29T09:04:35.806Z,89.75
2022-10-29T09:07:21.020Z,89.22
2022-10-29T09:09:58.691Z,87.28
2022-10-29T09:12:42.024Z,86.68
2022-10-29T09:15:28.735Z,86.94
2022-10-29T09:18:12.575Z,86.53
2022-10-29T09:20:52.330Z,87.27
2022-10-29T09:23:31.466Z,85.57
2022-10-29T09:26:03.890Z,82.75
2022-10-29T09:28:44.851Z,82.13
2022-10-29T09:31:22.002Z,82.84
2022-10-29T09:33:55.332Z,83.12
2022-10-29T09:36:26.149Z,82.96
2022-10-29T09:38:58.663Z,81.67
2022-10-29T09:41:31.428Z,82.39
2022-10-29T09:44:03.785Z,82.14
2022-10-29T09:46:40.499Z,81.35
2022-10-29T09:49:24.323Z,81.29
2022-10-29T09:51:56.977Z,80.62
2022-10-29T09:54:28.646Z,79.80
2022-10-29T09:56:58.036Z,80.26
2022-10-29T09:59:32.807Z,79.86
2022-10-29T10:02:01.037Z,79.59
2022-10-29T10:04:31.870Z,79.56
2022-10-29T10:07:08.922Z,78.77
2022-10-29T10:09:55.605Z,78.01
2022-10-29T10:12:25.590Z,78.00
2022-10-29T10:15:03.988Z,77.44
2022-10-29T10:18:01.232Z,76.95
2022-10-29T10:20:32.962Z,76.93
2022-10-29T10:23:01.033Z,77.22
2022-10-29T10:25:40.884Z,76.97
2022-10-29T10:28:20.376Z,75.95
2022-10-29T10:31:07.795Z,76.25
2022-10-29T10:33:37.596Z,74.43
2022-10-29T10:36:10.205Z,73.52
2022-10-29T10:38:44.531Z,72.58
2022-10-29T10:41:15.795Z,74.79
2022-10-29T10:43:46.043Z,73.81
2022-10-29T10:46:20.567Z,74.02
2022-10-29T10:48:58.839Z,73.89
2022-10-29T10:51:30.607Z,74.51
2022-10-29T10:53:59.642Z,74.06
2022-10-29T10:56:28.719Z,72.89
2022-10-29T10:59:04.445Z,72.34
2022-10-29T11:01:37.391Z,74.26
2022-10-29T11:04:15.743Z,73.32
2022-10-29T11:06:47.688Z,74.27
2022-10-29T11:09:21.958Z,74.05
2022-10-29T11:11:59.263Z,74.82
2022-10-29T11:14:32.596Z,74.34
2022-10-29T11:17:02.882Z,74.51
2022-10-29T11:19:38.161Z,74.55
2022-10-29T11:22:16.622Z,74.16
2022-10-29T11:24:52.112Z,74.15
2022-10-29T11:27:29.570Z,73.34
2022-10-29T11:30:04.250Z,72.73
2022-10-29T11:32:42.712Z,72.57
2022-10-29T11:35:14.237Z,72.27
2022-10-29T11:37:51.092Z,70.70
2022-10-29T11:40:23.803Z,70.23
2022-10-29T11:42:53.145Z,70.17
2022-10-29T11:45:28.654Z,69.50
2022-10-29T11:48:08.336Z,69.53
2022-10-29T11:50:47.051Z,69.47
2022-10-29T11:53:42.135Z,69.39
2022-10-29T11:56:20.499Z,68.91
2022-10-29T11:58:55.735Z,67.80
2022-10-29T12:01:32.200Z,68.02
2022-10-29T12:04:12.480Z,68.18
2022-10-29T12:06:54.790Z,67.38
2022-10-29T12:09:46.429Z,66.84
2022-10-29T12:12:21.479Z,67.09
2022-10-29T12:14:52.811Z,67.73
2022-10-29T12:17:24.195Z,67.01
2022-10-29T12:19:58.264Z,66.75
2022-10-29T12:22:38.523Z,67.46
2022-10-29T12:25:21.387Z,67.60
2022-10-29T12:28:01.962Z,67.37
2022-10-29T12:30:35.113Z,67.26
2022-10-29T12:33:13.395Z,66.80
2022-10-29T12:35:46.975Z,66.95
2022-10-29T12:38:29.021Z,68.08
2022-10-29T12:41:03.089Z,67.73
2022-10-29T12:43:34.577Z,67.48
2022-10-29T12:46:21.279Z,68.02
2022-10-29T12:48:59.238Z,68.13
2022-10-29T12:51:37.798Z,68.88
2022-10-29T12:54:23.143Z,68.04
2022-10-29T12:56:51.219Z,68.70
2022-10-29T12:59:30.443Z,67.63
2022-10-29T13:02:19.656Z,67.21
2022-10-29T13:05:33.449Z,67.60
2022-10-29T13:08:27.683Z,68.83
2022-10-29T13:10:57.542Z,67.44
2022-10-29T13:13:49.993Z,67.44
2022-10-29T13:16:21.538Z,68.10
2022-10-29T13:19:03.049Z,67.52
2022-10-29T13:21:59.765Z,67.55
2022-10-29T13:24:28.934Z,67.29
2022-10-29T13:27:02.517Z,67.61
2022-10-29T13:29:48.909Z,67.46
2022-10-29T13:32:33.793Z,67.80
2022-10-29T13:35:05.270Z,67.97
2022-10-29T13:37:54.400Z,67.97
2022-10-29T13:40:58.962Z,67.89
2022-10-29T13:43:28.037Z,68.05
2022-10-29T13:46:48.147Z,67.34
2022-10-29T13:49:23.197Z,67.45
2022-10-29T13:51:56.985Z,67.58
2022-10-29T13:54:31.921Z,67.90
2022-10-29T13:57:01.770Z,67.24
2022-10-29T13:59:37.395Z,67.30
2022-10-29T14:02:23.411Z,67.31
2022-10-29T14:04:57.646Z,67.06
2022-10-29T14:07:34.806Z,66.79
2022-10-29T14:10:09.432Z,66.77
2022-10-29T14:12:39.426Z,67.79
2022-10-29T14:15:10.385Z,67.70
2022-10-29T14:17:39.794Z,67.30
2022-10-29T14:20:22.090Z,68.05
2022-10-29T14:22:51.447Z,67.34
2022-10-29T14:25:35.721Z,67.55
2022-10-29T14:28:22.247Z,67.65
2022-10-29T14:31:01.287Z,66.72
2022-10-29T14:33:31.311Z,67.08
2022-10-29T14:36:06.605Z,66.95
2022-10-29T14:38:43.353Z,67.02
2022-10-29T14:41:11.943Z,67.31
2022-10-29T14:43:40.588Z,67.61
2022-10-29T14:46:15.491Z,67.45
2022-10-29T14:48:54.719Z,68.23
2022-10-29T14:51:23.424Z,68.50
2022-10-29T14:53:59.726Z,68.57
2022-10-29T14:56:34.250Z,68.75
2022-10-29T14:59:08.448Z,68.67
2022-10-29T15:01:46.585Z,68.68
2022-10-29T15:04:20.577Z,68.95
2022-10-29T15:06:48.466Z,69.56
2022-10-29T15:09:26.821Z,69.59
2022-10-29T15:12:03.046Z,70.06
2022-10-29T15:14:46.664Z,69.59
2022-10-29T15:17:21.208Z,70.34
2022-10-29T15:19:52.506Z,70.40
2022-10-29T15:22:25.750Z,70.95
2022-10-29T15:24:56.804Z,71.29
2022-10-29T15:27:24.851Z,71.68
2022-10-29T15:29:54.377Z,71.73
2022-10-29T15:32:24.135Z,71.90
2022-10-29T15:34:56.553Z,72.45
2022-10-29T15:37:27.167Z,72.72
2022-10-29T15:40:07.028Z,72.49
2022-10-29T15:42:37.539Z,71.62
2022-10-29T15:45:19.406Z,71.20
2022-10-29T15:47:49.223Z,70.64
2022-10-29T15:50:18.924Z,70.08
2022-10-29T15:52:52.272Z,69.09
2022-10-29T15:55:27.078Z,69.26
2022-10-29T15:58:00.492Z,68.88
2022-10-29T16:00:28.647Z,68.65
2022-10-29T16:03:00.971Z,69.13
2022-10-29T16:05:28.692Z,69.14
2022-10-29T16:07:57.519Z,69.07
2022-10-29T16:10:26.565Z,69.74
2022-10-29T16:12:54.775Z,70.28
2022-10-29T16:15:23.023Z,70.46
2022-10-29T16:17:50.772Z,70.38
2022-10-29T16:20:20.502Z,70.49
2022-10-29T16:22:50.124Z,70.67
2022-10-29T16:25:22.860Z,71.07
2022-10-29T16:27:52.267Z,71.41
2022-10-29T16:30:21.123Z,71.35
2022-10-29T16:32:50.864Z,71.51
2022-10-29T16:35:21.511Z,71.37
2022-10-29T16:37:50.119Z,72.01
2022-10-29T16:40:18.934Z,72.55
2022-10-29T16:42:47.025Z,72.56
2022-10-29T16:45:18.720Z,73.21
2022-10-29T16:47:46.977Z,73.51
2022-10-29T16:50:17.721Z,74.16
2022-10-29T16:52:45.515Z,74.20
2022-10-29T16:55:14.090Z,74.70
2022-10-29T16:57:42.061Z,75.29
2022-10-29T17:00:10.695Z,75.46
2022-10-29T17:02:40.535Z,75.53
2022-10-29T17:05:08.855Z,75.20
2022-10-29T17:07:36.542Z,75.33
2022-10-29T17:10:04.736Z,75.24
2022-10-29T17:12:32.616Z,75.19
2022-10-29T17:15:00.357Z,75.40
2022-10-29T17:17:31.019Z,75.21
2022-10-29T17:20:00.470Z,75.47
2022-10-29T17:22:28.234Z,75.58
2022-10-29T17:24:55.950Z,75.39
2022-10-29T17:27:23.725Z,75.49
2022-10-29T17:29:51.426Z,75.44
2022-10-29T17:32:19.146Z,76.02
2022-10-29T17:34:46.878Z,75.68
2022-10-29T17:37:15.975Z,75.44
2022-10-29T17:39:43.759Z,75.44
2022-10-29T17:42:11.437Z,74.99
2022-10-29T17:44:39.116Z,75.35
2022-10-29T17:47:06.840Z,74.80
2022-10-29T17:49:34.854Z,74.51
2022-10-29T17:52:02.536Z,74.57
2022-10-29T17:54:33.984Z,74.36
2022-10-29T17:57:02.991Z,74.92
2022-10-29T17:59:30.740Z,74.36
2022-10-29T18:01:58.751Z,74.37
2022-10-29T18:04:26.780Z,74.58
2022-10-29T18:06:56.843Z,73.90
2022-10-29T18:09:24.508Z,74.08
2022-10-29T18:11:53.855Z,73.91
2022-10-29T18:14:21.647Z,74.02
2022-10-29T18:16:50.313Z,73.43
2022-10-29T18:19:18.263Z,74.09
2022-10-29T18:21:46.471Z,73.51
2022-10-29T18:24:14.248Z,73.84
2022-10-29T18:26:41.934Z,73.73
2022-10-29T18:29:13.191Z,73.47
2022-10-29T18:31:44.738Z,73.07
2022-10-29T18:34:14.977Z,72.55
2022-10-29T18:36:43.121Z,72.86
2022-10-29T18:39:10.852Z,73.08
2022-10-29T18:41:39.448Z,72.84
2022-10-29T18:44:07.468Z,73.16
2022-10-29T18:46:36.503Z,72.97
2022-10-29T18:49:04.956Z,72.92
2022-10-29T18:51:33.729Z,72.69
2022-10-29T18:54:01.634Z,72.36
2022-10-29T18:56:30.961Z,72.46
2022-10-29T18:59:00.271Z,72.29
2022-10-29T19:01:31.324Z,72.04
2022-10-29T19:04:03.641Z,72.38
2022-10-29T19:06:33.222Z,72.24
2022-10-29T19:09:02.449Z,72.15
2022-10-29T19:11:30.307Z,71.93
2022-10-29T19:13:59.620Z,72.15
2022-10-29T19:16:28.540Z,71.79
2022-10-29T19:18:57.801Z,72.23
2022-10-29T19:21:27.662Z,72.29
2022-10-29T19:23:56.605Z,72.54
2022-10-29T19:26:25.723Z,72.43
2022-10-29T19:28:53.881Z,72.26
2022-10-29T19:31:23.635Z,72.57
2022-10-29T19:33:52.841Z,72.55
2022-10-29T19:36:21.039Z,72.31
2022-10-29T19:38:50.481Z,72.20
2022-10-29T19:41:18.950Z,72.44
2022-10-29T19:43:47.656Z,72.61
2022-10-29T19:46:17.295Z,72.56
2022-10-29T19:48:49.875Z,72.55
2022-10-29T19:51:17.696Z,72.65
2022-10-29T19:53:45.679Z,72.56
2022-10-29T19:56:17.019Z,73.11
2022-10-29T19:58:45.438Z,73.02
2022-10-29T20:01:15.960Z,73.06
2022-10-29T20:03:44.182Z,73.25
2022-10-29T20:06:12.643Z,73.50
2022-10-29T20:08:40.443Z,73.21
2022-10-29T20:11:08.551Z,73.25
2022-10-29T20:13:37.881Z,73.26
2022-10-29T20:16:10.226Z,73.11
2022-10-29T20:18:38.161Z,73.23
2022-10-29T20:23:39.254Z,73.55
2022-10-29T20:26:07.867Z,73.48
2022-10-29T20:28:37.508Z,73.77
2022-10-29T20:31:24.458Z,73.53
2022-10-29T20:33:53.515Z,73.75
2022-10-29T20:36:21.815Z,74.09
2022-10-29T20:38:50.322Z,73.85
2022-10-29T20:41:18.705Z,73.78
2022-10-29T20:43:52.804Z,73.84
2022-10-29T20:46:20.926Z,73.53
2022-10-29T20:48:48.668Z,73.47
2022-10-29T20:51:17.129Z,73.41
2022-10-29T20:53:45.284Z,73.30
2022-10-29T20:56:16.196Z,73.50
2022-10-29T20:58:44.639Z,73.88
2022-10-29T21:01:16.122Z,74.10
2022-10-29T21:03:44.584Z,73.51
2022-10-29T21:06:17.193Z,73.42
2022-10-29T21:08:45.390Z,73.90
2022-10-29T21:11:14.968Z,73.63
2022-10-29T21:13:42.880Z,73.34
2022-10-29T21:16:17.220Z,74.02
2022-10-29T21:18:46.547Z,74.09
2022-10-29T21:21:14.633Z,74.30
2022-10-29T21:23:42.483Z,74.30
2022-10-29T21:26:12.956Z,74.14
2022-10-29T21:28:40.687Z,74.54
2022-10-29T21:31:08.732Z,74.73
2022-10-29T21:33:37.919Z,74.77
2022-10-29T21:36:06.128Z,74.85
2022-10-29T21:38:34.255Z,75.13
2022-10-29T21:41:03.037Z,75.37
2022-10-29T21:43:30.847Z,75.56
2022-10-29T21:45:58.849Z,75.94
2022-10-29T21:48:27.384Z,76.72
2022-10-29T21:51:02.288Z,76.49
2022-10-29T21:53:30.453Z,76.59
2022-10-29T21:55:58.454Z,75.92
2022-10-29T21:58:26.736Z,75.65
2022-10-29T22:01:03.416Z,76.04
2022-10-29T22:03:31.642Z,75.89
2022-10-29T22:06:04.593Z,75.73
2022-10-29T22:08:32.531Z,75.44
2022-10-29T22:11:00.761Z,75.11
2022-10-29T22:13:29.083Z,75.27
2022-10-29T22:15:57.090Z,75.53
2022-10-29T22:18:25.977Z,75.74
2022-10-29T22:21:05.280Z,75.49
2022-10-29T22:23:33.310Z,75.01
2022-10-29T22:26:01.349Z,74.96
2022-10-29T22:28:29.197Z,75.14
2022-10-29T22:31:01.185Z,74.98
2022-10-29T22:33:29.364Z,74.88
2022-10-29T22:35:57.268Z,74.93
2022-10-29T22:38:26.317Z,75.63
2022-10-29T22:40:54.161Z,75.52
2022-10-29T22:43:21.874Z,75.56
2022-10-29T22:45:49.594Z,75.99
2022-10-29T22:48:17.254Z,76.34
2022-10-29T22:50:44.982Z,76.69
2022-10-29T22:53:12.718Z,76.87
2022-10-29T22:55:41.830Z,76.61
2022-10-29T22:58:09.716Z,77.15
2022-10-29T23:00:37.394Z,77.26
2022-10-29T23:03:05.440Z,77.34
2022-10-29T23:05:33.299Z,77.55
2022-10-29T23:08:01.261Z,77.49
2022-10-29T23:10:29.008Z,77.33
2022-10-29T23:12:58.046Z,77.45
2022-10-29T23:15:25.780Z,77.79
2022-10-29T23:17:54.410Z,77.81
2022-10-29T23:20:22.258Z,77.53
2022-10-29T23:22:49.964Z,78.07
2022-10-29T23:25:17.919Z,78.29
2022-10-29T23:27:45.700Z,78.14
2022-10-29T23:30:15.356Z,77.86
2022-10-29T23:32:43.187Z,78.00
2022-10-29T23:35:10.846Z,78.12
2022-10-29T23:37:38.551Z,78.40
2022-10-29T23:40:07.363Z,78.63
2022-10-29T23:42:35.113Z,78.56
2022-10-29T23:45:06.871Z,78.68
2022-10-29T23:47:36.911Z,78.69
2022-10-29T23:50:04.980Z,79.56
2022-10-29T23:52:32.706Z,79.87
2022-10-29T23:55:00.682Z,79.80
2022-10-29T23:57:28.398Z,79.58
2022-10-29T23:59:56.179Z,79.44
